sensor_id;sensor_type;location;lat;lon;timestamp;P1;durP1;ratioP1;P2;durP2;ratioP2
12601;SDS011;30282;16.436;99.370;2023-04-15T00:01:16;207.03;;;157.43;;
12601;SDS011;30282;16.436;99.370;2023-04-15T00:03:46;201.10;;;159.47;;
12601;SDS011;30282;16.436;99.370;2023-04-15T00:06:15;243.27;;;167.50;;
12601;SDS011;30282;16.436;99.370;2023-04-15T00:08:45;217.63;;;168.23;;
12601;SDS011;30282;16.436;99.370;2023-04-15T00:11:15;223.17;;;174.17;;
12601;SDS011;30282;16.436;99.370;2023-04-15T00:13:46;220.07;;;171.03;;
12601;SDS011;30282;16.436;99.370;2023-04-15T00:16:15;209.77;;;167.13;;
12601;SDS011;30282;16.436;99.370;2023-04-15T00:18:44;216.27;;;176.93;;
12601;SDS011;30282;16.436;99.370;2023-04-15T00:21:13;253.70;;;178.63;;
12601;SDS011;30282;16.436;99.370;2023-04-15T00:23:42;221.93;;;179.77;;
12601;SDS011;30282;16.436;99.370;2023-04-15T00:26:14;226.20;;;181.43;;
12601;SDS011;30282;16.436;99.370;2023-04-15T00:28:43;234.77;;;179.17;;
12601;SDS011;30282;16.436;99.370;2023-04-15T00:31:14;235.30;;;182.23;;
12601;SDS011;30282;16.436;99.370;2023-04-15T00:33:43;233.20;;;179.43;;
12601;SDS011;30282;16.436;99.370;2023-04-15T00:36:13;232.37;;;178.23;;
12601;SDS011;30282;16.436;99.370;2023-04-15T00:38:43;219.93;;;173.80;;
12601;SDS011;30282;16.436;99.370;2023-04-15T00:41:12;202.67;;;166.80;;
12601;SDS011;30282;16.436;99.370;2023-04-15T00:43:41;214.13;;;166.57;;
12601;SDS011;30282;16.436;99.370;2023-04-15T00:46:12;208.83;;;164.13;;
12601;SDS011;30282;16.436;99.370;2023-04-15T00:48:45;211.43;;;166.87;;
12601;SDS011;30282;16.436;99.370;2023-04-15T00:51:14;207.57;;;159.40;;
12601;SDS011;30282;16.436;99.370;2023-04-15T00:53:43;216.20;;;164.37;;
12601;SDS011;30282;16.436;99.370;2023-04-15T00:56:12;194.60;;;158.30;;
12601;SDS011;30282;16.436;99.370;2023-04-15T00:58:42;206.60;;;163.90;;
12601;SDS011;30282;16.436;99.370;2023-04-15T01:01:13;212.57;;;158.77;;
12601;SDS011;30282;16.436;99.370;2023-04-15T01:03:42;210.57;;;164.40;;
12601;SDS011;30282;16.436;99.370;2023-04-15T01:06:11;219.50;;;164.50;;
12601;SDS011;30282;16.436;99.370;2023-04-15T01:08:40;211.37;;;163.03;;
12601;SDS011;30282;16.436;99.370;2023-04-15T01:11:10;201.87;;;160.97;;
12601;SDS011;30282;16.436;99.370;2023-04-15T01:13:40;197.60;;;154.03;;
12601;SDS011;30282;16.436;99.370;2023-04-15T01:16:09;204.57;;;159.33;;
12601;SDS011;30282;16.436;99.370;2023-04-15T01:18:41;201.70;;;161.83;;
12601;SDS011;30282;16.436;99.370;2023-04-15T01:21:10;223.80;;;160.40;;
12601;SDS011;30282;16.436;99.370;2023-04-15T01:23:39;216.13;;;159.80;;
12601;SDS011;30282;16.436;99.370;2023-04-15T01:26:14;208.10;;;156.23;;
12601;SDS011;30282;16.436;99.370;2023-04-15T01:28:43;191.73;;;158.93;;
12601;SDS011;30282;16.436;99.370;2023-04-15T01:31:13;205.47;;;155.90;;
12601;SDS011;30282;16.436;99.370;2023-04-15T01:33:43;186.93;;;153.03;;
12601;SDS011;30282;16.436;99.370;2023-04-15T01:36:13;195.63;;;159.00;;
12601;SDS011;30282;16.436;99.370;2023-04-15T01:38:42;196.53;;;155.77;;
12601;SDS011;30282;16.436;99.370;2023-04-15T01:41:12;205.90;;;156.07;;
12601;SDS011;30282;16.436;99.370;2023-04-15T01:43:42;182.37;;;149.47;;
12601;SDS011;30282;16.436;99.370;2023-04-15T01:46:13;189.60;;;146.90;;
12601;SDS011;30282;16.436;99.370;2023-04-15T01:48:42;185.97;;;146.37;;
12601;SDS011;30282;16.436;99.370;2023-04-15T01:51:12;182.20;;;145.40;;
12601;SDS011;30282;16.436;99.370;2023-04-15T01:53:41;177.67;;;147.40;;
12601;SDS011;30282;16.436;99.370;2023-04-15T01:56:10;197.63;;;149.90;;
12601;SDS011;30282;16.436;99.370;2023-04-15T01:58:43;177.17;;;142.70;;
12601;SDS011;30282;16.436;99.370;2023-04-15T02:01:12;184.33;;;151.80;;
12601;SDS011;30282;16.436;99.370;2023-04-15T02:03:44;183.47;;;147.20;;
12601;SDS011;30282;16.436;99.370;2023-04-15T02:06:13;180.23;;;149.10;;
12601;SDS011;30282;16.436;99.370;2023-04-15T02:08:43;177.13;;;144.77;;
12601;SDS011;30282;16.436;99.370;2023-04-15T02:11:13;179.87;;;143.80;;
12601;SDS011;30282;16.436;99.370;2023-04-15T02:13:43;180.37;;;142.00;;
12601;SDS011;30282;16.436;99.370;2023-04-15T02:16:15;163.53;;;138.53;;
12601;SDS011;30282;16.436;99.370;2023-04-15T02:18:44;180.33;;;142.97;;
12601;SDS011;30282;16.436;99.370;2023-04-15T02:21:13;159.03;;;129.20;;
12601;SDS011;30282;16.436;99.370;2023-04-15T02:23:43;153.03;;;127.37;;
12601;SDS011;30282;16.436;99.370;2023-04-15T02:26:15;176.97;;;132.10;;
12601;SDS011;30282;16.436;99.370;2023-04-15T02:28:44;154.20;;;130.50;;
12601;SDS011;30282;16.436;99.370;2023-04-15T02:31:13;152.23;;;126.00;;
12601;SDS011;30282;16.436;99.370;2023-04-15T02:33:42;146.93;;;126.63;;
12601;SDS011;30282;16.436;99.370;2023-04-15T02:36:11;151.60;;;118.33;;
12601;SDS011;30282;16.436;99.370;2023-04-15T02:38:40;153.63;;;129.00;;
12601;SDS011;30282;16.436;99.370;2023-04-15T02:41:10;141.67;;;120.80;;
12601;SDS011;30282;16.436;99.370;2023-04-15T02:43:40;161.03;;;126.93;;
12601;SDS011;30282;16.436;99.370;2023-04-15T02:46:09;162.97;;;131.50;;
12601;SDS011;30282;16.436;99.370;2023-04-15T02:48:39;154.80;;;127.43;;
12601;SDS011;30282;16.436;99.370;2023-04-15T02:51:12;171.97;;;123.30;;
12601;SDS011;30282;16.436;99.370;2023-04-15T02:53:44;159.53;;;125.33;;
12601;SDS011;30282;16.436;99.370;2023-04-15T02:56:16;147.80;;;122.23;;
12601;SDS011;30282;16.436;99.370;2023-04-15T02:58:48;151.93;;;124.57;;
12601;SDS011;30282;16.436;99.370;2023-04-15T03:01:17;147.67;;;122.00;;
12601;SDS011;30282;16.436;99.370;2023-04-15T03:03:46;147.33;;;121.53;;
12601;SDS011;30282;16.436;99.370;2023-04-15T03:06:15;139.13;;;116.07;;
12601;SDS011;30282;16.436;99.370;2023-04-15T03:08:44;147.83;;;115.20;;
12601;SDS011;30282;16.436;99.370;2023-04-15T03:11:14;138.10;;;111.40;;
12601;SDS011;30282;16.436;99.370;2023-04-15T03:13:43;152.67;;;114.20;;
12601;SDS011;30282;16.436;99.370;2023-04-15T03:16:14;127.40;;;106.43;;
12601;SDS011;30282;16.436;99.370;2023-04-15T03:18:46;124.80;;;98.77;;
12601;SDS011;30282;16.436;99.370;2023-04-15T03:21:15;119.13;;;96.83;;
12601;SDS011;30282;16.436;99.370;2023-04-15T03:23:44;121.60;;;99.90;;
12601;SDS011;30282;16.436;99.370;2023-04-15T03:26:22;115.67;;;102.83;;
12601;SDS011;30282;16.436;99.370;2023-04-15T03:28:53;126.97;;;109.00;;
12601;SDS011;30282;16.436;99.370;2023-04-15T03:31:24;135.87;;;108.20;;
12601;SDS011;30282;16.436;99.370;2023-04-15T03:33:53;118.67;;;104.57;;
12601;SDS011;30282;16.436;99.370;2023-04-15T03:36:22;119.47;;;103.07;;
12601;SDS011;30282;16.436;99.370;2023-04-15T03:38:52;132.07;;;111.10;;
12601;SDS011;30282;16.436;99.370;2023-04-15T03:41:21;136.27;;;112.77;;
12601;SDS011;30282;16.436;99.370;2023-04-15T03:43:51;133.43;;;110.50;;
12601;SDS011;30282;16.436;99.370;2023-04-15T03:46:20;126.80;;;107.60;;
12601;SDS011;30282;16.436;99.370;2023-04-15T03:48:50;123.73;;;104.03;;
12601;SDS011;30282;16.436;99.370;2023-04-15T03:51:20;135.33;;;109.23;;
12601;SDS011;30282;16.436;99.370;2023-04-15T03:53:49;121.30;;;105.97;;
12601;SDS011;30282;16.436;99.370;2023-04-15T03:56:18;125.10;;;109.30;;
12601;SDS011;30282;16.436;99.370;2023-04-15T03:58:47;149.50;;;105.93;;
12601;SDS011;30282;16.436;99.370;2023-04-15T04:01:16;126.10;;;105.97;;
12601;SDS011;30282;16.436;99.370;2023-04-15T04:03:45;117.03;;;102.57;;
12601;SDS011;30282;16.436;99.370;2023-04-15T04:06:16;122.27;;;107.37;;
12601;SDS011;30282;16.436;99.370;2023-04-15T04:08:45;122.97;;;103.60;;
12601;SDS011;30282;16.436;99.370;2023-04-15T04:11:14;111.43;;;99.23;;
12601;SDS011;30282;16.436;99.370;2023-04-15T04:13:44;138.70;;;103.47;;
12601;SDS011;30282;16.436;99.370;2023-04-15T04:16:13;124.53;;;96.87;;
12601;SDS011;30282;16.436;99.370;2023-04-15T04:18:42;116.70;;;101.33;;
12601;SDS011;30282;16.436;99.370;2023-04-15T04:21:11;110.80;;;97.20;;
12601;SDS011;30282;16.436;99.370;2023-04-15T04:23:42;112.57;;;97.23;;
12601;SDS011;30282;16.436;99.370;2023-04-15T04:26:11;110.50;;;98.53;;
12601;SDS011;30282;16.436;99.370;2023-04-15T04:28:40;106.00;;;93.90;;
12601;SDS011;30282;16.436;99.370;2023-04-15T04:31:09;110.03;;;95.07;;
12601;SDS011;30282;16.436;99.370;2023-04-15T04:33:38;104.90;;;92.93;;
12601;SDS011;30282;16.436;99.370;2023-04-15T04:36:07;125.93;;;99.03;;
12601;SDS011;30282;16.436;99.370;2023-04-15T04:38:36;108.73;;;97.00;;
12601;SDS011;30282;16.436;99.370;2023-04-15T04:41:07;108.10;;;92.87;;
12601;SDS011;30282;16.436;99.370;2023-04-15T04:43:36;104.33;;;87.30;;
12601;SDS011;30282;16.436;99.370;2023-04-15T04:46:05;105.70;;;86.73;;
12601;SDS011;30282;16.436;99.370;2023-04-15T04:48:36;103.00;;;84.90;;
12601;SDS011;30282;16.436;99.370;2023-04-15T04:51:05;95.03;;;83.77;;
12601;SDS011;30282;16.436;99.370;2023-04-15T04:53:34;102.50;;;88.10;;
12601;SDS011;30282;16.436;99.370;2023-04-15T04:56:04;107.20;;;95.50;;
12601;SDS011;30282;16.436;99.370;2023-04-15T04:58:35;108.70;;;96.60;;
12601;SDS011;30282;16.436;99.370;2023-04-15T05:01:04;106.93;;;95.50;;
12601;SDS011;30282;16.436;99.370;2023-04-15T05:03:33;108.17;;;91.67;;
12601;SDS011;30282;16.436;99.370;2023-04-15T05:06:02;106.13;;;94.00;;
12601;SDS011;30282;16.436;99.370;2023-04-15T05:08:33;101.30;;;89.80;;
12601;SDS011;30282;16.436;99.370;2023-04-15T05:11:02;96.80;;;86.27;;
12601;SDS011;30282;16.436;99.370;2023-04-15T05:13:33;95.50;;;85.47;;
12601;SDS011;30282;16.436;99.370;2023-04-15T05:16:03;100.60;;;86.67;;
12601;SDS011;30282;16.436;99.370;2023-04-15T05:18:33;98.40;;;87.67;;
12601;SDS011;30282;16.436;99.370;2023-04-15T05:21:03;99.50;;;88.70;;
12601;SDS011;30282;16.436;99.370;2023-04-15T05:23:33;99.83;;;89.03;;
12601;SDS011;30282;16.436;99.370;2023-04-15T05:26:02;115.47;;;90.23;;
12601;SDS011;30282;16.436;99.370;2023-04-15T05:28:33;94.80;;;84.40;;
12601;SDS011;30282;16.436;99.370;2023-04-15T05:31:02;94.53;;;84.23;;
12601;SDS011;30282;16.436;99.370;2023-04-15T05:33:35;100.83;;;87.57;;
12601;SDS011;30282;16.436;99.370;2023-04-15T05:36:05;97.23;;;86.60;;
12601;SDS011;30282;16.436;99.370;2023-04-15T05:38:34;96.97;;;85.27;;
12601;SDS011;30282;16.436;99.370;2023-04-15T05:41:04;95.30;;;84.70;;
12601;SDS011;30282;16.436;99.370;2023-04-15T05:43:36;92.43;;;81.60;;
12601;SDS011;30282;16.436;99.370;2023-04-15T05:46:05;86.30;;;76.93;;
12601;SDS011;30282;16.436;99.370;2023-04-15T05:48:35;86.70;;;77.70;;
12601;SDS011;30282;16.436;99.370;2023-04-15T05:51:04;91.00;;;80.73;;
12601;SDS011;30282;16.436;99.370;2023-04-15T05:53:34;83.60;;;74.60;;
12601;SDS011;30282;16.436;99.370;2023-04-15T05:56:05;76.33;;;68.13;;
12601;SDS011;30282;16.436;99.370;2023-04-15T05:58:36;80.53;;;71.93;;
12601;SDS011;30282;16.436;99.370;2023-04-15T06:01:05;77.33;;;69.13;;
12601;SDS011;30282;16.436;99.370;2023-04-15T06:03:34;79.70;;;71.00;;
12601;SDS011;30282;16.436;99.370;2023-04-15T06:06:04;84.40;;;75.50;;
12601;SDS011;30282;16.436;99.370;2023-04-15T06:08:33;84.00;;;75.00;;
12601;SDS011;30282;16.436;99.370;2023-04-15T06:11:03;86.93;;;72.43;;
12601;SDS011;30282;16.436;99.370;2023-04-15T06:13:32;97.50;;;72.67;;
12601;SDS011;30282;16.436;99.370;2023-04-15T06:16:06;80.37;;;71.50;;
12601;SDS011;30282;16.436;99.370;2023-04-15T06:18:35;77.77;;;69.70;;
12601;SDS011;30282;16.436;99.370;2023-04-15T06:21:06;88.57;;;70.53;;
12601;SDS011;30282;16.436;99.370;2023-04-15T06:23:35;82.60;;;73.90;;
12601;SDS011;30282;16.436;99.370;2023-04-15T06:26:05;79.27;;;71.23;;
12601;SDS011;30282;16.436;99.370;2023-04-15T06:28:55;80.03;;;71.50;;
12601;SDS011;30282;16.436;99.370;2023-04-15T06:31:26;82.37;;;73.57;;
12601;SDS011;30282;16.436;99.370;2023-04-15T06:33:55;83.23;;;72.50;;
12601;SDS011;30282;16.436;99.370;2023-04-15T06:36:24;84.90;;;76.00;;
12601;SDS011;30282;16.436;99.370;2023-04-15T06:38:53;88.70;;;74.57;;
12601;SDS011;30282;16.436;99.370;2023-04-15T06:41:23;83.57;;;72.20;;
12601;SDS011;30282;16.436;99.370;2023-04-15T06:43:55;77.53;;;69.30;;
12601;SDS011;30282;16.436;99.370;2023-04-15T06:46:26;85.07;;;75.87;;
12601;SDS011;30282;16.436;99.370;2023-04-15T06:49:06;80.37;;;72.17;;
12601;SDS011;30282;16.436;99.370;2023-04-15T06:51:48;78.33;;;70.33;;
12601;SDS011;30282;16.436;99.370;2023-04-15T06:54:17;75.80;;;68.03;;
12601;SDS011;30282;16.436;99.370;2023-04-15T06:56:46;79.27;;;70.87;;
12601;SDS011;30282;16.436;99.370;2023-04-15T06:59:16;79.20;;;70.77;;
12601;SDS011;30282;16.436;99.370;2023-04-15T07:01:47;83.43;;;71.13;;
12601;SDS011;30282;16.436;99.370;2023-04-15T07:04:16;80.63;;;71.03;;
12601;SDS011;30282;16.436;99.370;2023-04-15T07:06:45;78.37;;;70.10;;
12601;SDS011;30282;16.436;99.370;2023-04-15T07:09:14;75.57;;;67.33;;
12601;SDS011;30282;16.436;99.370;2023-04-15T07:11:43;73.77;;;66.07;;
12601;SDS011;30282;16.436;99.370;2023-04-15T07:14:12;74.10;;;65.97;;
12601;SDS011;30282;16.436;99.370;2023-04-15T07:16:41;79.03;;;69.90;;
12601;SDS011;30282;16.436;99.370;2023-04-15T07:19:12;77.70;;;69.60;;
12601;SDS011;30282;16.436;99.370;2023-04-15T07:21:41;77.93;;;65.70;;
12601;SDS011;30282;16.436;99.370;2023-04-15T07:24:10;74.93;;;67.23;;
12601;SDS011;30282;16.436;99.370;2023-04-15T07:26:42;73.13;;;65.13;;
12601;SDS011;30282;16.436;99.370;2023-04-15T07:29:11;75.40;;;67.67;;
12601;SDS011;30282;16.436;99.370;2023-04-15T07:31:40;72.57;;;64.87;;
12601;SDS011;30282;16.436;99.370;2023-04-15T07:34:09;69.70;;;62.67;;
12601;SDS011;30282;16.436;99.370;2023-04-15T07:36:41;75.33;;;64.17;;
12601;SDS011;30282;16.436;99.370;2023-04-15T07:39:10;71.13;;;63.60;;
12601;SDS011;30282;16.436;99.370;2023-04-15T07:41:42;70.60;;;63.23;;
12601;SDS011;30282;16.436;99.370;2023-04-15T07:44:11;70.90;;;63.63;;
12601;SDS011;30282;16.436;99.370;2023-04-15T07:46:46;69.80;;;62.50;;
12601;SDS011;30282;16.436;99.370;2023-04-15T07:49:20;69.83;;;62.43;;
12601;SDS011;30282;16.436;99.370;2023-04-15T07:51:50;71.80;;;64.57;;
12601;SDS011;30282;16.436;99.370;2023-04-15T07:54:24;66.80;;;59.57;;
12601;SDS011;30282;16.436;99.370;2023-04-15T07:56:54;66.60;;;58.43;;
12601;SDS011;30282;16.436;99.370;2023-04-15T07:59:23;68.60;;;57.60;;
12601;SDS011;30282;16.436;99.370;2023-04-15T08:01:54;67.83;;;60.53;;
12601;SDS011;30282;16.436;99.370;2023-04-15T08:04:25;64.40;;;57.47;;
12601;SDS011;30282;16.436;99.370;2023-04-15T08:06:54;63.20;;;54.07;;
12601;SDS011;30282;16.436;99.370;2023-04-15T08:09:23;61.27;;;55.03;;
12601;SDS011;30282;16.436;99.370;2023-04-15T08:11:55;60.47;;;53.23;;
12601;SDS011;30282;16.436;99.370;2023-04-15T08:14:25;61.77;;;55.47;;
12601;SDS011;30282;16.436;99.370;2023-04-15T08:16:54;59.97;;;53.83;;
12601;SDS011;30282;16.436;99.370;2023-04-15T08:19:23;62.80;;;56.17;;
12601;SDS011;30282;16.436;99.370;2023-04-15T08:21:54;60.07;;;53.47;;
12601;SDS011;30282;16.436;99.370;2023-04-15T08:24:23;65.17;;;54.80;;
12601;SDS011;30282;16.436;99.370;2023-04-15T08:26:53;68.43;;;55.70;;
12601;SDS011;30282;16.436;99.370;2023-04-15T08:29:22;65.93;;;53.90;;
12601;SDS011;30282;16.436;99.370;2023-04-15T08:31:52;58.80;;;52.53;;
12601;SDS011;30282;16.436;99.370;2023-04-15T08:34:21;58.13;;;52.30;;
12601;SDS011;30282;16.436;99.370;2023-04-15T08:36:52;62.83;;;53.40;;
12601;SDS011;30282;16.436;99.370;2023-04-15T08:39:21;58.20;;;51.87;;
12601;SDS011;30282;16.436;99.370;2023-04-15T08:41:51;64.07;;;51.97;;
12601;SDS011;30282;16.436;99.370;2023-04-15T08:44:23;58.83;;;52.60;;
12601;SDS011;30282;16.436;99.370;2023-04-15T08:46:53;67.00;;;52.00;;
12601;SDS011;30282;16.436;99.370;2023-04-15T08:49:27;59.23;;;53.23;;
12601;SDS011;30282;16.436;99.370;2023-04-15T08:51:59;55.63;;;49.50;;
12601;SDS011;30282;16.436;99.370;2023-04-15T08:54:29;57.90;;;51.00;;
12601;SDS011;30282;16.436;99.370;2023-04-15T08:56:58;58.80;;;52.77;;
12601;SDS011;30282;16.436;99.370;2023-04-15T08:59:29;58.13;;;51.93;;
12601;SDS011;30282;16.436;99.370;2023-04-15T09:01:59;58.13;;;51.47;;
12601;SDS011;30282;16.436;99.370;2023-04-15T09:04:29;58.33;;;52.13;;
12601;SDS011;30282;16.436;99.370;2023-04-15T09:06:59;57.37;;;50.30;;
12601;SDS011;30282;16.436;99.370;2023-04-15T09:09:29;54.40;;;48.90;;
12601;SDS011;30282;16.436;99.370;2023-04-15T09:11:59;57.87;;;51.53;;
12601;SDS011;30282;16.436;99.370;2023-04-15T09:14:29;61.37;;;52.17;;
12601;SDS011;30282;16.436;99.370;2023-04-15T09:17:00;57.93;;;51.43;;
12601;SDS011;30282;16.436;99.370;2023-04-15T09:19:31;55.43;;;49.53;;
12601;SDS011;30282;16.436;99.370;2023-04-15T09:22:05;59.30;;;52.00;;
12601;SDS011;30282;16.436;99.370;2023-04-15T09:24:35;55.43;;;49.47;;
12601;SDS011;30282;16.436;99.370;2023-04-15T09:27:06;56.33;;;50.43;;
12601;SDS011;30282;16.436;99.370;2023-04-15T09:29:42;56.93;;;50.73;;
12601;SDS011;30282;16.436;99.370;2023-04-15T09:32:16;60.83;;;50.37;;
12601;SDS011;30282;16.436;99.370;2023-04-15T09:34:45;65.97;;;51.60;;
12601;SDS011;30282;16.436;99.370;2023-04-15T09:37:18;53.63;;;47.97;;
12601;SDS011;30282;16.436;99.370;2023-04-15T09:40:04;54.13;;;48.27;;
12601;SDS011;30282;16.436;99.370;2023-04-15T09:42:34;54.83;;;49.23;;
12601;SDS011;30282;16.436;99.370;2023-04-15T09:45:10;53.53;;;47.93;;
12601;SDS011;30282;16.436;99.370;2023-04-15T09:47:39;61.10;;;49.33;;
12601;SDS011;30282;16.436;99.370;2023-04-15T09:50:08;56.27;;;50.27;;
12601;SDS011;30282;16.436;99.370;2023-04-15T09:52:48;62.63;;;51.23;;
12601;SDS011;30282;16.436;99.370;2023-04-15T09:55:17;62.40;;;49.37;;
12601;SDS011;30282;16.436;99.370;2023-04-15T09:57:47;53.97;;;48.20;;
12601;SDS011;30282;16.436;99.370;2023-04-15T10:00:16;57.70;;;49.23;;
12601;SDS011;30282;16.436;99.370;2023-04-15T10:02:45;55.87;;;49.23;;
12601;SDS011;30282;16.436;99.370;2023-04-15T10:05:15;55.67;;;49.00;;
12601;SDS011;30282;16.436;99.370;2023-04-15T10:07:45;55.33;;;49.30;;
12601;SDS011;30282;16.436;99.370;2023-04-15T10:10:16;61.37;;;50.60;;
12601;SDS011;30282;16.436;99.370;2023-04-15T10:12:46;66.23;;;49.37;;
12601;SDS011;30282;16.436;99.370;2023-04-15T10:15:16;54.93;;;49.43;;
12601;SDS011;30282;16.436;99.370;2023-04-15T10:17:47;59.40;;;47.87;;
12601;SDS011;30282;16.436;99.370;2023-04-15T10:20:20;55.83;;;49.90;;
12601;SDS011;30282;16.436;99.370;2023-04-15T10:22:52;61.37;;;48.30;;
12601;SDS011;30282;16.436;99.370;2023-04-15T10:25:21;62.23;;;50.70;;
12601;SDS011;30282;16.436;99.370;2023-04-15T10:27:53;63.47;;;51.87;;
12601;SDS011;30282;16.436;99.370;2023-04-15T10:30:22;56.47;;;50.37;;
12601;SDS011;30282;16.436;99.370;2023-04-15T10:32:51;58.07;;;50.53;;
12601;SDS011;30282;16.436;99.370;2023-04-15T10:35:21;58.30;;;51.23;;
12601;SDS011;30282;16.436;99.370;2023-04-15T10:37:52;66.67;;;55.20;;
12601;SDS011;30282;16.436;99.370;2023-04-15T10:40:25;53.93;;;48.37;;
12601;SDS011;30282;16.436;99.370;2023-04-15T10:42:56;56.97;;;50.80;;
12601;SDS011;30282;16.436;99.370;2023-04-15T10:45:26;55.57;;;49.70;;
12601;SDS011;30282;16.436;99.370;2023-04-15T10:48:00;60.33;;;48.43;;
12601;SDS011;30282;16.436;99.370;2023-04-15T10:50:30;64.70;;;49.73;;
12601;SDS011;30282;16.436;99.370;2023-04-15T10:53:03;57.30;;;51.20;;
12601;SDS011;30282;16.436;99.370;2023-04-15T10:55:32;61.30;;;54.13;;
12601;SDS011;30282;16.436;99.370;2023-04-15T10:58:01;57.03;;;50.77;;
12601;SDS011;30282;16.436;99.370;2023-04-15T11:00:31;56.03;;;48.93;;
12601;SDS011;30282;16.436;99.370;2023-04-15T11:03:04;58.00;;;51.03;;
12601;SDS011;30282;16.436;99.370;2023-04-15T11:05:50;54.90;;;49.27;;
12601;SDS011;30282;16.436;99.370;2023-04-15T11:08:33;58.57;;;50.17;;
12601;SDS011;30282;16.436;99.370;2023-04-15T11:14:25;58.53;;;48.63;;
12601;SDS011;30282;16.436;99.370;2023-04-15T11:16:54;59.77;;;50.80;;
12601;SDS011;30282;16.436;99.370;2023-04-15T11:19:23;57.53;;;50.13;;
12601;SDS011;30282;16.436;99.370;2023-04-15T11:21:52;59.63;;;50.17;;
12601;SDS011;30282;16.436;99.370;2023-04-15T11:24:24;60.30;;;49.67;;
12601;SDS011;30282;16.436;99.370;2023-04-15T11:26:56;69.73;;;49.47;;
12601;SDS011;30282;16.436;99.370;2023-04-15T11:29:28;67.50;;;50.20;;
12601;SDS011;30282;16.436;99.370;2023-04-15T11:32:04;72.53;;;50.43;;
12601;SDS011;30282;16.436;99.370;2023-04-15T11:34:33;68.23;;;60.83;;
12601;SDS011;30282;16.436;99.370;2023-04-15T11:37:03;78.53;;;59.70;;
12601;SDS011;30282;16.436;99.370;2023-04-15T11:39:34;72.77;;;54.90;;
12601;SDS011;30282;16.436;99.370;2023-04-15T11:42:15;68.60;;;49.00;;
12601;SDS011;30282;16.436;99.370;2023-04-15T11:44:45;80.50;;;53.00;;
12601;SDS011;30282;16.436;99.370;2023-04-15T11:47:21;60.80;;;54.33;;
12601;SDS011;30282;16.436;99.370;2023-04-15T11:49:51;61.93;;;52.30;;
12601;SDS011;30282;16.436;99.370;2023-04-15T11:52:20;60.13;;;50.93;;
12601;SDS011;30282;16.436;99.370;2023-04-15T11:54:52;61.23;;;52.00;;
12601;SDS011;30282;16.436;99.370;2023-04-15T11:57:30;64.37;;;51.47;;
12601;SDS011;30282;16.436;99.370;2023-04-15T12:00:01;58.23;;;49.90;;
12601;SDS011;30282;16.436;99.370;2023-04-15T12:02:31;57.13;;;50.33;;
12601;SDS011;30282;16.436;99.370;2023-04-15T12:05:03;61.93;;;51.53;;
12601;SDS011;30282;16.436;99.370;2023-04-15T12:10:30;61.43;;;50.60;;
12601;SDS011;30282;16.436;99.370;2023-04-15T12:12:59;57.77;;;50.70;;
12601;SDS011;30282;16.436;99.370;2023-04-15T12:15:36;60.13;;;51.80;;
12601;SDS011;30282;16.436;99.370;2023-04-15T12:18:06;64.20;;;52.73;;
12601;SDS011;30282;16.436;99.370;2023-04-15T12:20:45;76.87;;;53.60;;
12601;SDS011;30282;16.436;99.370;2023-04-15T12:23:18;71.10;;;54.70;;
12601;SDS011;30282;16.436;99.370;2023-04-15T12:25:52;62.50;;;51.83;;
12601;SDS011;30282;16.436;99.370;2023-04-15T12:28:21;407.60;;;68.07;;
12601;SDS011;30282;16.436;99.370;2023-04-15T12:30:50;110.33;;;53.03;;
12601;SDS011;30282;16.436;99.370;2023-04-15T12:33:20;61.87;;;54.00;;
12601;SDS011;30282;16.436;99.370;2023-04-15T12:35:49;72.30;;;52.23;;
12601;SDS011;30282;16.436;99.370;2023-04-15T12:38:18;72.50;;;53.77;;
12601;SDS011;30282;16.436;99.370;2023-04-15T12:40:48;76.53;;;50.13;;
12601;SDS011;30282;16.436;99.370;2023-04-15T12:43:19;66.47;;;53.47;;
12601;SDS011;30282;16.436;99.370;2023-04-15T12:45:48;67.50;;;51.27;;
12601;SDS011;30282;16.436;99.370;2023-04-15T12:48:17;62.37;;;53.40;;
12601;SDS011;30282;16.436;99.370;2023-04-15T12:50:47;67.73;;;52.13;;
12601;SDS011;30282;16.436;99.370;2023-04-15T12:53:16;79.57;;;54.63;;
12601;SDS011;30282;16.436;99.370;2023-04-15T12:55:45;60.87;;;52.60;;
12601;SDS011;30282;16.436;99.370;2023-04-15T12:58:15;70.30;;;54.27;;
12601;SDS011;30282;16.436;99.370;2023-04-15T13:00:46;74.57;;;52.67;;
12601;SDS011;30282;16.436;99.370;2023-04-15T13:03:15;70.93;;;57.23;;
12601;SDS011;30282;16.436;99.370;2023-04-15T13:05:47;69.83;;;55.57;;
12601;SDS011;30282;16.436;99.370;2023-04-15T13:08:17;74.13;;;55.80;;
12601;SDS011;30282;16.436;99.370;2023-04-15T13:11:04;80.53;;;54.60;;
12601;SDS011;30282;16.436;99.370;2023-04-15T13:13:59;74.73;;;57.27;;
12601;SDS011;30282;16.436;99.370;2023-04-15T13:16:42;73.93;;;57.80;;
12601;SDS011;30282;16.436;99.370;2023-04-15T13:19:31;68.40;;;56.30;;
12601;SDS011;30282;16.436;99.370;2023-04-15T13:22:11;69.90;;;59.77;;
12601;SDS011;30282;16.436;99.370;2023-04-15T13:24:58;86.10;;;57.90;;
12601;SDS011;30282;16.436;99.370;2023-04-15T13:28:00;67.63;;;56.50;;
12601;SDS011;30282;16.436;99.370;2023-04-15T13:30:55;86.40;;;58.60;;
12601;SDS011;30282;16.436;99.370;2023-04-15T13:34:18;67.73;;;56.93;;
12601;SDS011;30282;16.436;99.370;2023-04-15T13:36:47;67.33;;;56.30;;
12601;SDS011;30282;16.436;99.370;2023-04-15T13:39:16;77.27;;;56.50;;
12601;SDS011;30282;16.436;99.370;2023-04-15T13:41:45;72.57;;;61.70;;
12601;SDS011;30282;16.436;99.370;2023-04-15T13:44:15;80.43;;;59.83;;
12601;SDS011;30282;16.436;99.370;2023-04-15T13:46:46;64.87;;;57.73;;
12601;SDS011;30282;16.436;99.370;2023-04-15T13:49:17;97.87;;;60.37;;
12601;SDS011;30282;16.436;99.370;2023-04-15T13:51:46;76.13;;;59.47;;
12601;SDS011;30282;16.436;99.370;2023-04-15T13:54:16;77.63;;;59.20;;
12601;SDS011;30282;16.436;99.370;2023-04-15T13:56:45;74.90;;;58.50;;
12601;SDS011;30282;16.436;99.370;2023-04-15T13:59:14;92.60;;;59.93;;
12601;SDS011;30282;16.436;99.370;2023-04-15T14:01:43;70.90;;;58.23;;
12601;SDS011;30282;16.436;99.370;2023-04-15T14:04:13;69.73;;;60.60;;
12601;SDS011;30282;16.436;99.370;2023-04-15T14:06:44;72.57;;;59.57;;
12601;SDS011;30282;16.436;99.370;2023-04-15T14:09:14;84.13;;;61.90;;
12601;SDS011;30282;16.436;99.370;2023-04-15T14:11:43;81.43;;;59.73;;
12601;SDS011;30282;16.436;99.370;2023-04-15T14:14:16;69.73;;;57.60;;
12601;SDS011;30282;16.436;99.370;2023-04-15T14:16:45;73.90;;;61.10;;
12601;SDS011;30282;16.436;99.370;2023-04-15T14:19:19;75.20;;;60.90;;
12601;SDS011;30282;16.436;99.370;2023-04-15T14:21:53;77.40;;;65.03;;
12601;SDS011;30282;16.436;99.370;2023-04-15T14:24:25;83.27;;;63.40;;
12601;SDS011;30282;16.436;99.370;2023-04-15T14:26:54;84.23;;;66.27;;
12601;SDS011;30282;16.436;99.370;2023-04-15T14:29:24;82.37;;;62.93;;